Location Greenlaw, NA, UK

ob NPTOHCUK 180930Z AUTO 24000KT CLR CLR 00/M01 A2934 RMK SLPNO 

2018.01.18 0930 UTC
Wind from the WSW (243 degrees) at Calm MPH ( KT) gusting to 0 MPH (0 KT)
Visibility    Mile(s)
Weather: CLR
Sky Conditions  clear
Temperature 32.2 F (0 C)
Dew Point 30.1 F (-1 C)
Relative Humidity 92%
Pressure   29.347 in. Hg (994 hPa)
Rain  0.00 in.
Daily Rain  in.

Station Name  New Palace Theatre Organ Heritage Centre
Longitude, Latitude  -2.46, 55.71
Elevation 525
Station URL http://www.nptohc.co.uk/weather
Software Type WeatherDisplay:10.37P